Terminal Aerodrome Forecast
Issued by NWS

Home | Current Version | Previous Version | Text Only | Print | Product List | Glossary On
Versions: 1 2 3 4 5 6 7 8 9 10 11 12 13 14 15 16 17 18 19 20 21 22 23 24 25
000
FTUS46 KOTX 230523
TAFCOE
TAF
KCOE 230523Z 2306/2406 07009KT P6SM BKN120 OVC200
     FM230900 23008KT P6SM SKC
     FM232100 04014G18KT P6SM SCT080
      AMD LTD TO CLD AND VIS=

USA.gov is the U.S. government's official web portal to all federal, state and local government web resources and services.